Aérodrome :







RETROUVEZ-NOUS SUR...

 
LOGIN :

S'inscrire | Disclaimer

   EN    FR    IT 

 









Légende :    VFR   VFR Marginal   IFR   IFR Intensif   IFR Très Intensif
Visi : 
Plafond : 
>= 8 km
>= 3000ft
5 à 8 km
1000 à 3000 ft
1500m à 5 km
500 à 1000 ft
800 à 1500m
200 à 500 ft
< 800m
< 200 ft
Symboles :   Orages  Brouillard  Fortes neiges  Fortes précipitations  Vent > 20 kt






- Altitude de l'aérodrome : 90 ft
- Code IATA : YHU


CYHU - Montréal Saint-Hubert

DERNIER METAR :
  • 181900Z AUTO 04010KT 9SM OVC095 M15/M19 A3029 RMK PRESFR SLP263

METARs EXPIRÉS :
  • 181800Z AUTO 09007KT 9SM SCT130 M15/M20 A3035 RMK PRESFR SLP281

TAF TAF CYHU
Valide du 18 à 18h jusqu'au 19 à 18h UTC


181740Z 1818/1918 09008KT P6SM FEW020 OVC110
FM182200 05012KT 11/2SM -SN VV015
TEMPO 1822/1823 6SM -SN
FM182300 04012G22KT 3/4SM -SN VV008
TEMPO 1823/1905 11/2SM -SN OVC012
PROB30 1900/1904 3/8SM SN BLSN VV004
FM190500 03012KT 11/2SM -SN VV010
TEMPO 1905/1910 3/4SM -SN VV008
FM191000 02012KT 21/2SM -SN OVC015
TEMPO 1910/1913 5SM -SN
FM191300 01012G22KT 5SM -SN OVC010
FM191600 01010KT P6SM -SN OVC012 RMK FCST BASED ON AUTO OBS. NXT FCST BY 190000Z



MET'MAP, la Météo Aéronautique d'un coup d'oeil ! - Copyright ORBIFLY Décembre 2007 - Disclaimer

ORBIFLY MET'MAP TEAM :

Programmation & Développement : Alexandra Zaïnal
Sur une idée originale de : Baudouin d'Aumeries
Assistance à la programmation : Marc-Olivier Méhu
Soutien technique & logistique : Manuel Goepfert

Contact : metmap@orbifly.com




SOURCES & CREDITS :

   NOAA